Time;durP1;ratioP1;P1;durP2;ratioP2;P2;SDS_P1;SDS_P2;PMS_P1;PMS_P2;Temp;Humidity;BMP_temperature;BMP_pressure;BME280_temperature;BME280_humidity;BME280_pressure;Samples;Min_cycle;Max_cycle;Signal;HPM_P1;HPM_P2
2022/02/15 00:01:05;;;;;;;;;;;;;;;-1.67;49.33;101392.64;117357;1185;23436;-58
2022/02/15 00:03:33;;;;;;;;;;;;;;;-1.65;49.42;101389.43;117364;1183;22604;-57
2022/02/15 00:06:01;;;;;;;;;;;;;;;-1.64;49.41;101388.65;117324;1185;23425;-52
2022/02/15 00:08:29;;;;;;;;;;;;;;;-1.62;49.31;101384.41;117315;1182;24123;-52
2022/02/15 00:10:58;;;;;;;;;;;;;;;-1.59;49.46;101383.19;117394;1185;22912;-51
2022/02/15 00:13:26;;;;;;;;;;;;;;;-1.57;49.50;101381.99;117385;1186;23525;-50
2022/02/15 00:15:55;;;;;;;;;;;;;;;-1.54;49.58;101380.05;117348;1181;21826;-55
2022/02/15 00:18:23;;;;;;;;;;;;;;;-1.46;49.40;101382.17;117411;1186;22301;-55
2022/02/15 00:20:51;;;;;;;;;;;;;;;-1.39;49.41;101380.83;117266;1189;21841;-58
2022/02/15 00:23:19;;;;;;;;;;;;;;;-1.28;49.54;101376.73;117411;1182;21838;-52
2022/02/15 00:25:49;;;;;;;;;;;;;;;-1.19;49.57;101378.06;117363;1185;24244;-52
2022/02/15 00:28:18;;;;;;;;;;;;;;;-1.09;49.47;101373.72;117397;1186;23438;-56
2022/02/15 00:30:47;;;;;;;;;;;;;;;-1.09;49.78;101371.89;117345;1185;21833;-59
2022/02/15 00:33:15;;;;;;;;;;;;;;;-1.03;49.85;101366.79;117388;1185;21832;-53
2022/02/15 00:35:43;;;;;;;;;;;;;;;-0.95;50.00;101361.52;117399;1186;23440;-51
2022/02/15 00:38:13;;;;;;;;;;;;;;;-0.89;49.88;101361.66;117393;1186;21847;-56
2022/02/15 00:40:42;;;;;;;;;;;;;;;-0.82;50.21;101355.11;117347;1186;21845;-53
2022/02/15 00:43:10;;;;;;;;;;;;;;;-0.75;50.02;101355.95;117426;1186;21835;-58
2022/02/15 00:45:38;;;;;;;;;;;;;;;-0.69;50.09;101349.20;117428;1185;23435;-57
2022/02/15 00:48:07;;;;;;;;;;;;;;;-0.63;49.94;101351.88;117476;1185;21838;-52
2022/02/15 00:50:35;;;;;;;;;;;;;;;-0.56;50.09;101349.65;117364;1182;24149;-56
2022/02/15 00:53:03;;;;;;;;;;;;;;;-0.48;50.18;101344.20;117399;1183;21894;-52
2022/02/15 00:55:31;;;;;;;;;;;;;;;-0.39;49.97;101342.39;117395;1183;21979;-57
2022/02/15 00:57:59;;;;;;;;;;;;;;;-0.31;50.25;101338.80;117399;1183;21838;-57
2022/02/15 01:00:28;;;;;;;;;;;;;;;-0.21;50.19;101337.87;117396;1186;23410;-58
2022/02/15 01:02:56;;;;;;;;;;;;;;;-0.11;50.09;101337.08;117400;1186;21825;-57
2022/02/15 01:05:24;;;;;;;;;;;;;;;-0.03;50.11;101337.33;117383;1185;21825;-57
2022/02/15 01:07:52;;;;;;;;;;;;;;;0.05;50.29;101337.13;117348;1186;21834;-58
2022/02/15 01:10:20;;;;;;;;;;;;;;;0.10;50.39;101337.56;117347;1183;23416;-57
2022/02/15 01:12:49;;;;;;;;;;;;;;;0.14;50.30;101341.20;117384;1182;21976;-53
2022/02/15 01:15:17;;;;;;;;;;;;;;;0.20;50.50;101339.92;117415;1187;23418;-57
2022/02/15 01:17:46;;;;;;;;;;;;;;;0.27;50.60;101336.77;117459;1186;21844;-52
2022/02/15 01:20:14;;;;;;;;;;;;;;;0.34;50.47;101338.27;117394;1185;23410;-58
2022/02/15 01:22:42;;;;;;;;;;;;;;;0.40;50.52;101331.67;117384;1186;22629;-53
2022/02/15 01:25:10;;;;;;;;;;;;;;;0.47;50.70;101329.36;117325;1186;23109;-57
2022/02/15 01:27:38;;;;;;;;;;;;;;;0.54;50.54;101327.06;117378;1184;23443;-56
2022/02/15 01:30:08;;;;;;;;;;;;;;;0.58;50.33;101324.48;117398;1186;23435;-57
2022/02/15 01:32:37;;;;;;;;;;;;;;;0.62;50.49;101321.35;117369;1186;22978;-57
2022/02/15 01:35:06;;;;;;;;;;;;;;;0.66;50.49;101320.35;117413;1185;23420;-53
2022/02/15 01:37:35;;;;;;;;;;;;;;;0.69;50.54;101320.13;117371;1185;22910;-56
2022/02/15 01:40:03;;;;;;;;;;;;;;;0.75;50.61;101318.11;117233;1182;21845;-53
2022/02/15 01:42:32;;;;;;;;;;;;;;;0.82;50.69;101314.29;117357;1186;23732;-53
2022/02/15 01:45:00;;;;;;;;;;;;;;;0.90;50.88;101312.90;117345;1185;21967;-56
2022/02/15 01:47:28;;;;;;;;;;;;;;;0.97;50.58;101310.92;117384;1182;21858;-56
2022/02/15 01:49:58;;;;;;;;;;;;;;;1.04;50.74;101309.14;117345;1185;21838;-56
2022/02/15 01:52:26;;;;;;;;;;;;;;;1.11;50.94;101304.75;117378;1182;22600;-57
2022/02/15 01:54:55;;;;;;;;;;;;;;;1.18;50.76;101308.34;117385;1185;21845;-52
2022/02/15 01:57:23;;;;;;;;;;;;;;;1.25;50.94;101310.70;117420;1183;23550;-59
2022/02/15 01:59:55;;;;;;;;;;;;;;;1.31;50.80;101310.59;117422;1183;22426;-57
2022/02/15 02:02:23;;;;;;;;;;;;;;;1.37;50.83;101308.58;117430;1186;23449;-57
2022/02/15 02:07:39;;;;;;;;;;;;;;;1.48;50.82;101305.19;117347;1186;23050;-58
2022/02/15 02:10:07;;;;;;;;;;;;;;;1.53;50.96;101299.87;117352;1182;21835;-57
2022/02/15 02:12:35;;;;;;;;;;;;;;;1.58;50.89;101299.52;117365;1186;21838;-57
2022/02/15 02:15:04;;;;;;;;;;;;;;;1.61;50.65;101300.55;117377;1186;22603;-58
2022/02/15 02:17:33;;;;;;;;;;;;;;;1.65;50.86;101303.78;117315;1185;23439;-54
2022/02/15 02:20:01;;;;;;;;;;;;;;;1.69;50.94;101300.66;117403;1186;21851;-58
2022/02/15 02:22:29;;;;;;;;;;;;;;;1.73;50.95;101299.09;117372;1185;22908;-59
2022/02/15 02:24:58;;;;;;;;;;;;;;;1.75;51.05;101293.63;117372;1186;23420;-57
2022/02/15 02:27:26;;;;;;;;;;;;;;;1.78;51.11;101295.13;117362;1185;22953;-55
2022/02/15 02:29:55;;;;;;;;;;;;;;;1.83;51.11;101297.21;117404;1184;21883;-58
2022/02/15 02:32:27;;;;;;;;;;;;;;;1.87;51.18;101293.22;117368;1183;23516;-55
2022/02/15 02:34:57;;;;;;;;;;;;;;;1.90;50.98;101290.57;117319;1185;22913;-58
2022/02/15 02:37:25;;;;;;;;;;;;;;;1.95;50.96;101290.90;117375;1186;21841;-54
2022/02/15 02:39:53;;;;;;;;;;;;;;;1.97;50.90;101287.55;117327;1186;23425;-58
2022/02/15 02:42:26;;;;;;;;;;;;;;;1.99;50.92;101286.89;117368;1186;21838;-54
2022/02/15 02:44:57;;;;;;;;;;;;;;;2.01;50.98;101284.17;117341;1186;22855;-54
2022/02/15 02:47:26;;;;;;;;;;;;;;;2.08;50.78;101286.21;117340;1186;22906;-58
2022/02/15 02:49:54;;;;;;;;;;;;;;;2.13;50.67;101284.13;117332;1186;23443;-54
2022/02/15 02:52:22;;;;;;;;;;;;;;;2.17;50.86;101285.14;117392;1186;23098;-55
2022/02/15 02:54:50;;;;;;;;;;;;;;;2.20;50.82;101281.42;117406;1186;23537;-57
2022/02/15 02:57:18;;;;;;;;;;;;;;;2.21;50.93;101277.65;117397;1185;21848;-56
2022/02/15 02:59:47;;;;;;;;;;;;;;;2.23;50.67;101280.16;117463;1186;21835;-55
2022/02/15 03:02:15;;;;;;;;;;;;;;;2.24;50.74;101281.92;117373;1185;21841;-58
2022/02/15 03:04:44;;;;;;;;;;;;;;;2.25;50.79;101278.65;117396;1186;23440;-58
2022/02/15 03:07:13;;;;;;;;;;;;;;;2.26;50.90;101281.14;117374;1186;22303;-55
2022/02/15 03:09:42;;;;;;;;;;;;;;;2.28;50.71;101276.50;117368;1186;21839;-55
2022/02/15 03:12:12;;;;;;;;;;;;;;;2.28;50.89;101277.55;117421;1186;21879;-55
2022/02/15 03:14:41;;;;;;;;;;;;;;;2.28;50.72;101284.66;117329;1185;21839;-55
2022/02/15 03:17:09;;;;;;;;;;;;;;;2.27;50.77;101284.27;117335;1182;23413;-58
2022/02/15 03:19:37;;;;;;;;;;;;;;;2.27;50.96;101285.48;117308;1186;21839;-54
2022/02/15 03:22:06;;;;;;;;;;;;;;;2.27;50.76;101285.48;117237;1185;21826;-54
2022/02/15 03:24:35;;;;;;;;;;;;;;;2.27;50.91;101284.44;117402;1182;21845;-58
2022/02/15 03:27:03;;;;;;;;;;;;;;;2.28;50.94;101279.45;117397;1186;21855;-58
2022/02/15 03:29:32;;;;;;;;;;;;;;;2.27;50.86;101283.95;117347;1182;24126;-56
2022/02/15 03:32:00;;;;;;;;;;;;;;;2.26;50.98;101281.13;117424;1185;23433;-59
2022/02/15 03:34:28;;;;;;;;;;;;;;;2.21;51.29;101280.10;117400;1183;21860;-59
2022/02/15 03:36:56;;;;;;;;;;;;;;;2.21;51.09;101283.89;117363;1186;21964;-55
2022/02/15 03:39:35;;;;;;;;;;;;;;;2.21;51.09;101281.98;117338;1186;21848;-55
2022/02/15 03:44:53;;;;;;;;;;;;;;;2.20;51.14;101281.11;117328;1186;23439;-54
2022/02/15 03:47:22;;;;;;;;;;;;;;;2.22;51.12;101281.34;117362;1186;22305;-54
2022/02/15 03:49:50;;;;;;;;;;;;;;;2.29;51.05;101285.05;117358;1185;21874;-58
2022/02/15 03:52:18;;;;;;;;;;;;;;;2.34;50.96;101288.01;117375;1186;22638;-58
2022/02/15 03:54:46;;;;;;;;;;;;;;;2.37;50.99;101291.94;117382;1186;23439;-54
2022/02/15 03:57:14;;;;;;;;;;;;;;;2.40;51.09;101297.06;117401;1182;23443;-58
2022/02/15 03:59:42;;;;;;;;;;;;;;;2.42;51.15;101295.05;117288;1186;23429;-55
2022/02/15 04:02:10;;;;;;;;;;;;;;;2.45;51.10;101298.60;117359;1186;21864;-58
2022/02/15 04:04:38;;;;;;;;;;;;;;;2.48;50.96;101298.86;117337;1186;23623;-55
2022/02/15 04:07:06;;;;;;;;;;;;;;;2.49;51.12;101298.55;117435;1185;21833;-55
2022/02/15 04:09:34;;;;;;;;;;;;;;;2.49;51.09;101306.34;117357;1183;23343;-55
2022/02/15 04:12:03;;;;;;;;;;;;;;;2.49;50.90;101304.30;117344;1185;21830;-58
2022/02/15 04:14:31;;;;;;;;;;;;;;;2.51;51.10;101307.84;117378;1186;21844;-58
2022/02/15 04:17:00;;;;;;;;;;;;;;;2.52;50.91;101308.42;117419;1185;23095;-58
2022/02/15 04:19:29;;;;;;;;;;;;;;;2.53;51.02;101306.14;117367;1185;21838;-58
2022/02/15 04:21:57;;;;;;;;;;;;;;;2.53;51.07;101307.20;117350;1182;21845;-57
2022/02/15 04:24:25;;;;;;;;;;;;;;;2.46;51.24;101300.02;117342;1182;22879;-54
2022/02/15 04:26:54;;;;;;;;;;;;;;;2.54;51.06;101301.02;117355;1185;21829;-57
2022/02/15 04:29:22;;;;;;;;;;;;;;;2.54;51.14;101305.70;117349;1185;21838;-58
2022/02/15 04:31:50;;;;;;;;;;;;;;;2.53;51.18;101307.73;117383;1186;21877;-53
2022/02/15 04:34:18;;;;;;;;;;;;;;;2.58;51.15;101306.85;117383;1185;23519;-58
2022/02/15 04:36:46;;;;;;;;;;;;;;;2.62;51.03;101306.98;117494;1186;21852;-58
2022/02/15 04:39:14;;;;;;;;;;;;;;;2.64;50.96;101305.70;117346;1183;23528;-58
2022/02/15 04:41:43;;;;;;;;;;;;;;;2.65;51.11;101298.79;117353;1185;21839;-57
2022/02/15 04:44:11;;;;;;;;;;;;;;;2.65;51.19;101298.79;117329;1186;23000;-58
2022/02/15 04:46:39;;;;;;;;;;;;;;;2.66;50.95;101305.57;117378;1186;23449;-55
2022/02/15 04:49:08;;;;;;;;;;;;;;;2.66;51.19;101303.48;117411;1186;21839;-57
2022/02/15 04:51:36;;;;;;;;;;;;;;;2.65;50.88;101310.42;117367;1186;23163;-57
2022/02/15 04:54:04;;;;;;;;;;;;;;;2.67;51.28;101315.32;117318;1186;23404;-55
2022/02/15 04:56:32;;;;;;;;;;;;;;;2.69;51.19;101319.03;117366;1183;21839;-55
2022/02/15 04:59:00;;;;;;;;;;;;;;;2.70;51.05;101323.55;117410;1185;21849;-58
2022/02/15 05:01:29;;;;;;;;;;;;;;;2.68;51.07;101324.52;117439;1183;23606;-58
2022/02/15 05:03:57;;;;;;;;;;;;;;;2.67;50.80;101327.11;117414;1185;21835;-58
2022/02/15 05:06:28;;;;;;;;;;;;;;;2.67;51.06;101324.48;117352;1183;21835;-53
2022/02/15 05:08:56;;;;;;;;;;;;;;;2.66;51.13;101325.35;117367;1186;21826;-53
2022/02/15 05:11:24;;;;;;;;;;;;;;;2.66;51.07;101323.23;117371;1186;21838;-53
2022/02/15 05:13:53;;;;;;;;;;;;;;;2.64;51.10;101325.64;117346;1185;23413;-57
2022/02/15 05:16:21;;;;;;;;;;;;;;;2.64;51.10;101332.04;117260;1185;21840;-55
2022/02/15 05:18:49;;;;;;;;;;;;;;;2.64;51.13;101331.33;117346;1186;21848;-54
2022/02/15 05:21:17;;;;;;;;;;;;;;;2.64;51.16;101332.39;117342;1183;23416;-58
2022/02/15 05:23:45;;;;;;;;;;;;;;;2.68;51.31;101330.27;117348;1179;21839;-56
2022/02/15 05:26:13;;;;;;;;;;;;;;;2.71;51.09;101336.77;117373;1185;21838;-58
2022/02/15 05:28:41;;;;;;;;;;;;;;;2.73;51.38;101334.22;117350;1185;21839;-55
2022/02/15 05:31:09;;;;;;;;;;;;;;;2.72;51.06;101335.76;117348;1185;21835;-55
2022/02/15 05:33:38;;;;;;;;;;;;;;;2.72;51.20;101340.27;117330;1182;23394;-59
2022/02/15 05:36:06;;;;;;;;;;;;;;;2.75;51.42;101341.23;117352;1183;21835;-58
2022/02/15 05:38:34;;;;;;;;;;;;;;;2.77;51.28;101344.26;117364;1186;21961;-55
2022/02/15 05:41:02;;;;;;;;;;;;;;;2.78;51.30;101350.04;117335;1186;21860;-54
2022/02/15 05:43:31;;;;;;;;;;;;;;;2.81;51.20;101352.02;117385;1185;22156;-58
2022/02/15 05:45:59;;;;;;;;;;;;;;;2.82;51.08;101360.39;117335;1185;23439;-56
2022/02/15 05:48:28;;;;;;;;;;;;;;;2.84;51.53;101360.28;117373;1185;21854;-53
2022/02/15 05:50:56;;;;;;;;;;;;;;;2.87;51.39;101362.45;117360;1185;21845;-56
2022/02/15 05:53:25;;;;;;;;;;;;;;;2.89;51.45;101360.80;117429;1183;21839;-53
2022/02/15 05:55:55;;;;;;;;;;;;;;;2.92;51.32;101360.73;117362;1185;21835;-54
2022/02/15 05:58:24;;;;;;;;;;;;;;;2.93;51.41;101364.40;117196;1186;22296;-57
2022/02/15 06:00:52;;;;;;;;;;;;;;;2.94;51.36;101366.88;117312;1183;23515;-54
2022/02/15 06:06:11;;;;;;;;;;;;;;;2.98;51.47;101367.89;117441;1186;21851;-57
2022/02/15 06:08:39;;;;;;;;;;;;;;;3.01;51.56;101369.89;117373;1185;21826;-57
2022/02/15 06:11:09;;;;;;;;;;;;;;;3.04;51.57;101369.29;117417;1186;21908;-56
2022/02/15 06:13:37;;;;;;;;;;;;;;;3.06;51.49;101368.15;117356;1183;21838;-57
2022/02/15 06:16:06;;;;;;;;;;;;;;;3.09;51.58;101368.42;117386;1176;23538;-56
2022/02/15 06:18:34;;;;;;;;;;;;;;;3.11;51.47;101363.65;117378;1185;24129;-53
2022/02/15 06:21:02;;;;;;;;;;;;;;;3.12;51.36;101367.85;117384;1182;21843;-53
2022/02/15 06:23:31;;;;;;;;;;;;;;;3.17;51.59;101365.56;117282;1185;21829;-58
2022/02/15 06:25:59;;;;;;;;;;;;;;;3.24;51.73;101367.55;117344;1185;21915;-52
2022/02/15 06:28:27;;;;;;;;;;;;;;;3.30;51.66;101369.13;117339;1185;23522;-52
2022/02/15 06:30:56;;;;;;;;;;;;;;;3.35;51.61;101370.84;117336;1185;23405;-53
2022/02/15 06:33:24;;;;;;;;;;;;;;;3.41;51.69;101369.49;117360;1185;22718;-57
2022/02/15 06:35:52;;;;;;;;;;;;;;;3.47;51.72;101373.16;117366;1183;24123;-57
2022/02/15 06:38:23;;;;;;;;;;;;;;;3.52;51.72;101373.31;117311;1186;22912;-57
2022/02/15 06:40:52;;;;;;;;;;;;;;;3.57;51.76;101371.40;117404;1185;22294;-53
2022/02/15 06:43:20;;;;;;;;;;;;;;;3.63;51.84;101369.84;117426;1182;24145;-57
2022/02/15 06:45:48;;;;;;;;;;;;;;;3.69;51.73;101371.42;117435;1183;21898;-55
2022/02/15 06:48:17;;;;;;;;;;;;;;;3.75;51.98;101373.19;117359;1182;23528;-57
2022/02/15 06:50:46;;;;;;;;;;;;;;;3.82;52.06;101369.57;117176;1186;22905;-54
2022/02/15 06:53:17;;;;;;;;;;;;;;;3.89;51.95;101375.02;117340;1185;21845;-54
2022/02/15 06:56:09;;;;;;;;;;;;;;;3.96;51.76;101370.18;117333;1182;23440;-53
2022/02/15 06:58:37;;;;;;;;;;;;;;;4.00;52.02;101371.49;117335;1185;21839;-53
2022/02/15 07:01:05;;;;;;;;;;;;;;;4.08;51.93;101372.27;117303;1186;23408;-56
2022/02/15 07:03:35;;;;;;;;;;;;;;;4.21;52.14;101369.01;117324;1185;24239;-53
2022/02/15 07:06:04;;;;;;;;;;;;;;;4.38;52.24;101369.67;117322;1185;21835;-52
2022/02/15 07:08:32;;;;;;;;;;;;;;;4.54;52.20;101369.62;117304;1186;24196;-54
2022/02/15 07:11:00;;;;;;;;;;;;;;;4.66;52.40;101368.36;117291;1183;23423;-54
2022/02/15 07:13:28;;;;;;;;;;;;;;;4.80;52.51;101365.98;117279;1185;22971;-53
2022/02/15 07:15:56;;;;;;;;;;;;;;;4.97;52.67;101361.91;117345;1183;23449;-53
2022/02/15 07:18:26;;;;;;;;;;;;;;;5.13;52.62;101362.52;117347;1182;23528;-57
2022/02/15 07:20:54;;;;;;;;;;;;;;;5.21;52.61;101359.76;117354;1186;21871;-53
2022/02/15 07:23:25;;;;;;;;;;;;;;;5.25;52.16;101357.59;117343;1182;23448;-57
2022/02/15 07:25:53;;;;;;;;;;;;;;;5.30;52.00;101356.83;117347;1185;23416;-55
2022/02/15 07:28:21;;;;;;;;;;;;;;;5.34;52.12;101357.10;117398;1182;23426;-55
2022/02/15 07:30:50;;;;;;;;;;;;;;;5.38;52.19;101352.85;117388;1182;21963;-56
2022/02/15 07:33:18;;;;;;;;;;;;;;;5.47;52.05;101352.04;117405;1182;21839;-54
2022/02/15 07:35:46;;;;;;;;;;;;;;;5.67;52.51;101346.58;117379;1188;23419;-55
2022/02/15 07:38:15;;;;;;;;;;;;;;;5.85;52.83;101343.68;117375;1183;22918;-59
2022/02/15 07:40:42;;;;;;;;;;;;;;;6.00;52.74;101341.07;117329;1184;22909;-55
2022/02/15 07:43:11;;;;;;;;;;;;;;;6.18;52.69;101342.00;117313;1185;22629;-59
2022/02/15 07:45:40;;;;;;;;;;;;;;;6.37;52.53;101339.59;117262;1185;23535;-55
2022/02/15 07:48:08;;;;;;;;;;;;;;;6.48;52.44;101334.23;117338;1186;21879;-59
2022/02/15 07:50:37;;;;;;;;;;;;;;;6.68;52.92;101332.35;117392;1181;21840;-58
2022/02/15 07:53:05;;;;;;;;;;;;;;;6.97;53.03;101332.18;117400;1182;23518;-55
2022/02/15 07:55:34;;;;;;;;;;;;;;;7.19;52.72;101332.38;117361;1185;23520;-58
2022/02/15 07:58:06;;;;;;;;;;;;;;;7.34;52.55;101331.76;117323;1182;21892;-58
2022/02/15 08:00:38;;;;;;;;;;;;;;;7.41;52.48;101330.65;117372;1186;21838;-58
2022/02/15 08:03:06;;;;;;;;;;;;;;;7.38;52.39;101327.98;117346;1186;22928;-56
2022/02/15 08:05:39;;;;;;;;;;;;;;;7.32;52.28;101327.88;117338;1186;21837;-55
2022/02/15 08:08:08;;;;;;;;;;;;;;;7.27;52.37;101326.42;117341;1181;22918;-59
2022/02/15 08:10:38;;;;;;;;;;;;;;;7.29;52.29;101324.52;117388;1185;23056;-55
2022/02/15 08:13:08;;;;;;;;;;;;;;;7.32;52.15;101322.64;117342;1182;23147;-58
2022/02/15 08:15:41;;;;;;;;;;;;;;;7.36;52.39;101322.01;117289;1186;23196;-58
2022/02/15 08:18:10;;;;;;;;;;;;;;;7.38;52.26;101320.65;117331;1185;22975;-58
2022/02/15 08:20:40;;;;;;;;;;;;;;;7.40;52.24;101319.11;117291;1182;21880;-57
2022/02/15 08:23:09;;;;;;;;;;;;;;;7.46;52.19;101319.55;118478;1185;21843;-58
2022/02/15 08:25:38;;;;;;;;;;;;;;;7.55;52.26;101323.01;117401;1182;22648;-54
2022/02/15 08:28:07;;;;;;;;;;;;;;;7.66;52.45;101320.90;117346;1186;21846;-55
2022/02/15 08:30:35;;;;;;;;;;;;;;;7.79;52.31;101321.43;117376;1183;22756;-55
2022/02/15 08:33:04;;;;;;;;;;;;;;;7.94;52.29;101322.17;117362;1186;21835;-57
2022/02/15 08:35:33;;;;;;;;;;;;;;;8.03;52.08;101320.54;117303;1185;22326;-55
2022/02/15 08:38:02;;;;;;;;;;;;;;;8.11;52.04;101320.13;117494;1183;22002;-58
2022/02/15 08:40:30;;;;;;;;;;;;;;;8.18;52.16;101319.34;117372;1186;23416;-59
2022/02/15 08:43:10;;;;;;;;;;;;;;;8.31;52.22;101315.65;117340;1182;24123;-59
2022/02/15 08:45:39;;;;;;;;;;;;;;;8.40;52.08;101316.45;117442;1183;23426;-56
2022/02/15 08:48:08;;;;;;;;;;;;;;;8.46;51.89;101317.05;117361;1185;21835;-56
2022/02/15 08:50:37;;;;;;;;;;;;;;;8.54;52.12;101314.71;117349;1182;22299;-60
2022/02/15 08:53:05;;;;;;;;;;;;;;;8.68;52.26;101309.79;117345;1182;23439;-56
2022/02/15 08:55:34;;;;;;;;;;;;;;;8.82;52.01;101309.23;117419;1185;21838;-56
2022/02/15 08:58:03;;;;;;;;;;;;;;;8.89;51.95;101308.96;117372;1185;22911;-57
2022/02/15 09:00:33;;;;;;;;;;;;;;;8.98;52.15;101307.29;117437;1182;23439;-59
2022/02/15 09:03:01;;;;;;;;;;;;;;;9.12;51.94;101308.80;117432;1185;21881;-59
2022/02/15 09:05:30;;;;;;;;;;;;;;;9.24;52.03;101304.70;117363;1182;22032;-58
2022/02/15 09:07:58;;;;;;;;;;;;;;;9.55;52.35;101300.89;117335;1182;23618;-59
2022/02/15 09:10:26;;;;;;;;;;;;;;;9.86;52.40;101298.98;117388;1186;23580;-59
2022/02/15 09:12:54;;;;;;;;;;;;;;;10.15;52.31;101291.75;117316;1182;21899;-58
2022/02/15 09:15:23;;;;;;;;;;;;;;;10.38;52.42;101287.11;117295;1185;23424;-58
2022/02/15 09:17:51;;;;;;;;;;;;;;;10.63;52.51;101282.63;117312;1186;21854;-59
2022/02/15 09:20:19;;;;;;;;;;;;;;;10.84;52.40;101281.78;117334;1185;23516;-58
2022/02/15 09:22:48;;;;;;;;;;;;;;;10.98;51.97;101281.27;117486;1186;21839;-59
2022/02/15 09:25:16;;;;;;;;;;;;;;;11.11;52.08;101281.63;117322;1182;21845;-59
2022/02/15 09:27:44;;;;;;;;;;;;;;;11.13;51.74;101279.33;117425;1184;21848;-59
2022/02/15 09:30:13;;;;;;;;;;;;;;;11.16;51.64;101276.36;117320;1182;23416;-58
2022/02/15 09:32:41;;;;;;;;;;;;;;;11.18;51.76;101274.07;117412;1186;22822;-60
2022/02/15 09:35:09;;;;;;;;;;;;;;;11.28;51.80;101268.60;117427;1182;21850;-58
2022/02/15 09:37:37;;;;;;;;;;;;;;;11.36;51.90;101266.32;117437;1185;22233;-58
2022/02/15 09:40:06;;;;;;;;;;;;;;;11.62;52.01;101263.98;117350;1182;22970;-57
2022/02/15 09:42:35;;;;;;;;;;;;;;;11.85;51.90;101256.89;117947;1182;24123;-58
2022/02/15 09:45:04;;;;;;;;;;;;;;;11.99;51.72;101253.70;118624;1183;21836;-58
2022/02/15 09:47:33;;;;;;;;;;;;;;;11.94;51.06;101254.38;117433;1183;21844;-57
2022/02/15 09:50:05;;;;;;;;;;;;;;;11.88;51.18;101249.84;117385;1185;21845;-56
2022/02/15 09:52:36;;;;;;;;;;;;;;;11.81;51.04;101252.52;117427;1183;22675;-56
2022/02/15 09:55:04;;;;;;;;;;;;;;;11.71;51.02;101248.14;117430;1182;21845;-58
2022/02/15 09:57:33;;;;;;;;;;;;;;;11.64;51.03;101243.59;117477;1183;23416;-58
2022/02/15 10:00:09;;;;;;;;;;;;;;;11.59;50.95;101248.52;117373;1185;21838;-55
2022/02/15 10:02:37;;;;;;;;;;;;;;;11.44;50.24;101244.86;117440;1182;21983;-57
2022/02/15 10:05:05;;;;;;;;;;;;;;;11.26;50.33;101242.63;117339;1182;21835;-55
2022/02/15 10:07:34;;;;;;;;;;;;;;;11.14;50.37;101243.51;117344;1182;21838;-60
2022/02/15 10:10:03;;;;;;;;;;;;;;;11.05;50.50;101241.94;117415;1182;23490;-57
2022/02/15 10:12:33;;;;;;;;;;;;;;;10.92;50.26;101245.79;117433;1183;22632;-57
2022/02/15 10:15:02;;;;;;;;;;;;;;;10.69;49.81;101242.98;117110;1182;23832;-59
2022/02/15 10:17:32;;;;;;;;;;;;;;;10.43;49.91;101241.00;117351;1182;23420;-59
2022/02/15 10:20:02;;;;;;;;;;;;;;;10.26;50.07;101243.21;117305;1182;23439;-59
2022/02/15 10:22:32;;;;;;;;;;;;;;;10.15;50.10;101244.58;117345;1186;21821;-59
2022/02/15 10:25:02;;;;;;;;;;;;;;;10.04;50.16;101243.13;117367;1186;23512;-58
2022/02/15 10:27:31;;;;;;;;;;;;;;;9.92;50.05;101237.84;117330;1185;21904;-59
2022/02/15 10:30:03;;;;;;;;;;;;;;;9.81;49.99;101235.33;117349;1185;23446;-57
2022/02/15 10:32:32;;;;;;;;;;;;;;;9.63;49.68;101241.55;117454;1186;21854;-57
2022/02/15 10:35:00;;;;;;;;;;;;;;;9.43;49.69;101238.45;117398;1185;22156;-57
2022/02/15 10:37:30;;;;;;;;;;;;;;;9.29;49.74;101238.70;117431;1185;21842;-59
2022/02/15 10:39:59;;;;;;;;;;;;;;;9.17;49.82;101240.21;117428;1183;21842;-60
2022/02/15 10:42:30;;;;;;;;;;;;;;;9.03;49.75;101237.30;117557;1182;23450;-58
2022/02/15 10:44:59;;;;;;;;;;;;;;;8.86;49.50;101243.11;117392;1183;23515;-57
2022/02/15 10:47:32;;;;;;;;;;;;;;;8.67;49.52;101242.77;117321;1183;24136;-58
2022/02/15 10:50:01;;;;;;;;;;;;;;;8.56;49.60;101245.45;117333;1183;22751;-59
2022/02/15 10:52:29;;;;;;;;;;;;;;;8.43;49.68;101241.28;117297;1185;23449;-58
2022/02/15 10:54:59;;;;;;;;;;;;;;;8.32;49.80;101239.06;117322;1182;21851;-57
2022/02/15 10:57:28;;;;;;;;;;;;;;;8.22;49.81;101238.95;117389;1183;21842;-58
2022/02/15 10:59:56;;;;;;;;;;;;;;;8.15;49.65;101238.00;117418;1182;22619;-57
2022/02/15 11:02:30;;;;;;;;;;;;;;;8.08;49.67;101234.59;117470;1182;22783;-60
2022/02/15 11:05:01;;;;;;;;;;;;;;;8.04;49.97;101237.01;117408;1182;22584;-59
2022/02/15 11:07:32;;;;;;;;;;;;;;;8.03;50.05;101235.58;117366;1182;23416;-57
2022/02/15 11:10:02;;;;;;;;;;;;;;;8.04;49.95;101232.45;117378;1182;21838;-58
2022/02/15 11:12:33;;;;;;;;;;;;;;;8.04;50.03;101229.67;118498;1185;21844;-56
2022/02/15 11:15:07;;;;;;;;;;;;;;;8.04;50.09;101228.96;118772;1185;21836;-56
2022/02/15 11:17:36;;;;;;;;;;;;;;;8.07;50.05;101233.54;119460;1185;21797;-57
2022/02/15 11:20:05;;;;;;;;;;;;;;;8.05;50.00;101236.30;117983;1185;21844;-56
2022/02/15 11:22:42;;;;;;;;;;;;;;;7.95;49.73;101236.38;117530;1185;21897;-56
2022/02/15 11:25:11;;;;;;;;;;;;;;;7.88;49.95;101235.77;117501;1185;21834;-58
2022/02/15 11:27:39;;;;;;;;;;;;;;;7.83;49.84;101235.35;117399;1186;23417;-58
2022/02/15 11:30:13;;;;;;;;;;;;;;;7.78;50.03;101229.67;117376;1183;21834;-58
2022/02/15 11:32:42;;;;;;;;;;;;;;;7.78;50.07;101221.30;117332;1185;22892;-58
2022/02/15 11:35:13;;;;;;;;;;;;;;;7.80;50.25;101220.11;117413;1185;22975;-59
2022/02/15 11:37:42;;;;;;;;;;;;;;;7.80;49.89;101212.77;117402;1185;21847;-57
2022/02/15 11:40:12;;;;;;;;;;;;;;;7.77;49.84;101213.43;117488;1185;22979;-56
2022/02/15 11:42:41;;;;;;;;;;;;;;;7.73;50.16;101212.86;117399;1185;21848;-59
2022/02/15 11:45:38;;;;;;;;;;;;;;;7.76;50.14;101214.45;117346;1185;21836;-59
2022/02/15 11:48:07;;;;;;;;;;;;;;;7.75;50.17;101214.63;117355;1185;21852;-57
2022/02/15 11:50:40;;;;;;;;;;;;;;;7.72;49.92;101210.58;117377;1182;21870;-56
2022/02/15 11:53:08;;;;;;;;;;;;;;;7.66;50.15;101211.02;117431;1182;21844;-57
2022/02/15 11:55:37;;;;;;;;;;;;;;;7.56;49.93;101209.14;117165;1186;22915;-56
2022/02/15 11:58:08;;;;;;;;;;;;;;;7.50;50.14;101209.41;117393;1185;21848;-58
2022/02/15 12:00:37;;;;;;;;;;;;;;;7.46;50.07;101210.58;117373;1185;21876;-58
2022/02/15 12:03:05;;;;;;;;;;;;;;;7.39;50.00;101213.09;117344;1182;21832;-56
2022/02/15 12:05:40;;;;;;;;;;;;;;;7.31;49.99;101211.05;117362;1185;22953;-56
2022/02/15 12:08:10;;;;;;;;;;;;;;;7.25;49.97;101212.39;117310;1186;22979;-58
2022/02/15 12:10:38;;;;;;;;;;;;;;;7.21;50.10;101207.08;117433;1185;22908;-56
2022/02/15 12:13:14;;;;;;;;;;;;;;;7.17;49.92;101208.06;117383;1183;21844;-59
2022/02/15 12:15:46;;;;;;;;;;;;;;;7.14;49.80;101209.42;117339;1184;22403;-56
2022/02/15 12:18:14;;;;;;;;;;;;;;;7.09;50.01;101205.50;117405;1185;21863;-56
2022/02/15 12:20:42;;;;;;;;;;;;;;;7.06;50.23;101206.16;117436;1185;21841;-58
2022/02/15 12:23:10;;;;;;;;;;;;;;;7.04;49.89;101208.05;117378;1185;22880;-55
2022/02/15 12:25:42;;;;;;;;;;;;;;;6.98;49.94;101202.37;117413;1183;23416;-56
2022/02/15 12:28:10;;;;;;;;;;;;;;;6.93;50.03;101203.16;117369;1184;23439;-57
2022/02/15 12:30:43;;;;;;;;;;;;;;;6.92;49.81;101204.54;117336;1185;21838;-57
2022/02/15 12:33:11;;;;;;;;;;;;;;;6.91;50.09;101200.17;117382;1183;23433;-57
2022/02/15 12:35:39;;;;;;;;;;;;;;;6.95;50.05;101200.73;117394;1185;21842;-57
2022/02/15 12:38:08;;;;;;;;;;;;;;;6.97;50.33;101201.31;117508;1183;21848;-57
2022/02/15 12:40:35;;;;;;;;;;;;;;;7.00;50.22;101199.95;117388;1185;22737;-56
2022/02/15 12:43:05;;;;;;;;;;;;;;;7.05;50.51;101203.70;117349;1185;23403;-58
2022/02/15 12:45:41;;;;;;;;;;;;;;;7.09;50.32;101206.90;117416;1185;21839;-59
2022/02/15 12:48:10;;;;;;;;;;;;;;;7.10;50.21;101208.84;117377;1185;23439;-59
2022/02/15 12:50:39;;;;;;;;;;;;;;;7.08;50.51;101203.39;117349;1183;21900;-57
2022/02/15 12:53:08;;;;;;;;;;;;;;;7.10;50.01;101206.57;117442;1183;23416;-58